Terminal Aerodrome Forecast
Issued by NWS Cleveland, OH

Home | Current Version | Previous Version | Text Only | Print | Product List | Glossary On
Versions: 1 2 3 4 5 6 7 8 9 10 11 12 13 14 15 16 17 18 19 20 21 22 23 24 25 26
785
FTUS41 KCLE 280529
TAFCLE
TAF
KCLE 280529Z 2806/2912 19003KT P6SM FEW007 BKN200
      TEMPO 2809/2813 4SM BR
     FM281600 30006KT P6SM SCT040 BKN200
     FM282200 36008KT P6SM FEW035 BKN150=

USA.gov is the U.S. government's official web portal to all federal, state and local government web resources and services.